Time;durP1;ratioP1;P1;durP2;ratioP2;P2;SDS_P1;SDS_P2;PMS_P1;PMS_P2;Temp;Humidity;BMP_temperature;BMP_pressure;BME280_temperature;BME280_humidity;BME280_pressure;Samples;Min_cycle;Max_cycle;Signal;HPM_P1;HPM_P2
2022/06/16 00:01:05;;;;;;;2.80;1.62;;;;;;;14.59;54.43;100500.81;1772369;80;21894;-67
2022/06/16 00:03:31;;;;;;;2.60;1.57;;;;;;;14.54;54.68;100500.39;1772010;80;21385;-67
2022/06/16 00:05:59;;;;;;;3.65;1.72;;;;;;;14.50;54.88;100504.33;1780758;79;20988;-67
2022/06/16 00:08:26;;;;;;;3.27;2.00;;;;;;;14.46;55.05;100502.92;1776065;79;21005;-67
2022/06/16 00:13:39;;;;;;;8.10;2.00;;;;;;;14.40;55.05;100500.34;1775371;79;21937;-67
2022/06/16 00:16:06;;;;;;;3.83;2.05;;;;;;;14.35;55.17;100497.75;1764070;79;20992;-67
2022/06/16 00:18:34;;;;;;;5.70;2.40;;;;;;;14.30;55.29;100498.19;1739570;80;21042;-67
2022/06/16 00:21:01;;;;;;;4.05;2.17;;;;;;;14.20;55.52;100495.55;1767965;79;20993;-68
2022/06/16 00:23:28;;;;;;;4.72;2.08;;;;;;;14.15;55.70;100499.11;1775134;79;21029;-67
2022/06/16 00:25:54;;;;;;;3.92;1.77;;;;;;;14.12;55.84;100494.58;1777212;79;21775;-67
2022/06/16 00:28:21;;;;;;;3.62;2.12;;;;;;;14.07;56.09;100499.46;1772070;80;20969;-68
2022/06/16 00:30:47;;;;;;;7.60;2.05;;;;;;;13.98;56.38;100501.98;1766162;79;21009;-67
2022/06/16 00:33:14;;;;;;;4.37;2.10;;;;;;;13.89;56.61;100495.34;1712649;82;20985;-67
2022/06/16 00:35:40;;;;;;;4.42;2.10;;;;;;;13.80;56.77;100495.72;1701771;83;21186;-68
2022/06/16 00:38:07;;;;;;;6.35;1.90;;;;;;;13.72;56.97;100498.23;1716072;81;21527;-67
2022/06/16 00:40:33;;;;;;;3.15;1.90;;;;;;;13.65;57.23;100501.08;1726739;81;20971;-67
2022/06/16 00:43:02;;;;;;;3.62;1.95;;;;;;;13.57;57.52;100502.25;1727974;82;20908;-68
2022/06/16 00:46:12;;;;;;;8.48;2.60;;;;;;;13.56;57.69;100501.91;1746404;81;20960;-67
2022/06/16 00:48:55;;;;;;;5.42;2.22;;;;;;;13.56;57.77;100504.55;1706256;80;21464;-69
2022/06/16 00:51:37;;;;;;;4.85;2.30;;;;;;;13.51;57.86;100503.66;1727900;81;21469;-67
2022/06/16 00:54:21;;;;;;;4.60;2.30;;;;;;;13.46;57.95;100504.05;1738593;80;21008;-67
2022/06/16 00:56:53;;;;;;;4.03;2.10;;;;;;;13.42;58.08;100505.31;1743075;80;21464;-67
2022/06/16 00:59:20;;;;;;;3.95;2.30;;;;;;;13.38;58.21;100504.38;1743700;80;21404;-67
2022/06/16 01:01:48;;;;;;;3.85;2.33;;;;;;;13.35;58.29;100509.48;1742230;82;21026;-68
2022/06/16 01:07:02;;;;;;;5.60;2.30;;;;;;;13.28;58.48;100504.84;1749865;80;21487;-67
2022/06/16 01:09:31;;;;;;;3.33;2.00;;;;;;;13.26;58.55;100502.83;1740108;80;21371;-67
2022/06/16 01:15:07;;;;;;;5.67;2.10;;;;;;;13.22;58.63;100494.77;1748978;80;21514;-67
2022/06/16 01:17:46;;;;;;;4.03;1.90;;;;;;;13.16;58.80;100497.46;1745083;80;21941;-67
2022/06/16 01:20:39;;;;;;;6.22;2.02;;;;;;;13.09;58.97;100501.63;1738641;82;21421;-67
2022/06/16 01:23:41;;;;;;;3.95;2.30;;;;;;;13.00;59.07;100497.95;1745886;80;21017;-67
2022/06/16 01:26:30;;;;;;;5.60;2.30;;;;;;;12.90;59.25;100496.59;1735289;81;21463;-67
2022/06/16 01:29:24;;;;;;;6.55;1.82;;;;;;;12.85;59.54;100491.36;1735025;81;21571;-67
2022/06/16 01:32:34;;;;;;;6.60;2.30;;;;;;;12.81;59.56;100498.72;1741756;82;21950;-68
2022/06/16 01:35:32;;;;;;;2.05;1.60;;;;;;;12.77;59.59;100497.32;1747035;80;20954;-67
2022/06/16 01:38:13;;;;;;;2.95;1.87;;;;;;;12.74;59.72;100502.03;1712588;82;20988;-68
2022/06/16 01:40:58;;;;;;;4.33;1.80;;;;;;;12.69;59.88;100495.81;1730595;82;21021;-67
2022/06/16 01:43:32;;;;;;;4.10;1.80;;;;;;;12.65;60.02;100496.23;1716458;82;21022;-70
2022/06/16 01:46:23;;;;;;;3.20;1.98;;;;;;;12.59;60.21;100503.72;1729516;83;21845;-68
2022/06/16 01:48:55;;;;;;;4.55;2.22;;;;;;;12.54;60.39;100504.58;1723423;82;21002;-67
2022/06/16 01:51:33;;;;;;;4.33;2.45;;;;;;;12.52;60.49;100503.04;1719852;81;20965;-67
2022/06/16 01:54:16;;;;;;;6.67;2.47;;;;;;;12.52;60.54;100506.53;1718611;80;21048;-70
2022/06/16 01:57:04;;;;;;;4.75;2.60;;;;;;;12.54;60.54;100503.74;1755354;80;20968;-68
2022/06/16 01:59:44;;;;;;;8.48;2.70;;;;;;;12.57;60.45;100499.53;1730124;81;22009;-68
2022/06/16 02:02:15;;;;;;;4.40;2.70;;;;;;;12.57;60.40;100506.16;1759415;80;20924;-70
2022/06/16 02:04:52;;;;;;;4.53;2.60;;;;;;;12.58;60.40;100502.53;1738763;81;20939;-68
2022/06/16 02:07:27;;;;;;;6.95;3.05;;;;;;;12.59;60.39;100503.72;1729046;81;20996;-68
2022/06/16 02:09:56;;;;;;;5.30;2.83;;;;;;;12.60;60.35;100505.88;1747099;81;20949;-68
2022/06/16 02:15:38;;;;;;;3.45;2.55;;;;;;;12.65;60.17;100512.13;1749333;80;21122;-68
2022/06/16 02:18:08;;;;;;;5.50;2.50;;;;;;;12.62;60.40;100515.86;1773433;80;21051;-68
2022/06/16 02:20:50;;;;;;;4.30;2.47;;;;;;;12.58;60.53;100524.56;1718943;82;21005;-67
2022/06/16 02:23:17;;;;;;;4.10;2.40;;;;;;;12.54;60.34;100522.29;1752273;80;21013;-68
2022/06/16 02:25:45;;;;;;;3.75;2.45;;;;;;;12.51;60.33;100527.38;1752450;81;21805;-67
2022/06/16 02:28:12;;;;;;;7.30;2.60;;;;;;;12.51;60.40;100522.07;1745925;80;20983;-68
2022/06/16 02:30:57;;;;;;;6.45;2.62;;;;;;;12.52;60.40;100525.56;1750650;80;21064;-68
2022/06/16 02:33:32;;;;;;;3.87;2.30;;;;;;;12.53;60.47;100526.75;1719466;82;20961;-67
2022/06/16 02:36:07;;;;;;;2.95;2.20;;;;;;;12.54;60.53;100521.80;1749443;82;21007;-68
2022/06/16 02:38:48;;;;;;;3.42;2.25;;;;;;;12.56;60.64;100522.53;1744664;80;22279;-68
2022/06/16 02:41:30;;;;;;;3.87;2.17;;;;;;;12.53;60.74;100522.77;1750538;82;21035;-67
2022/06/16 02:44:17;;;;;;;;;;;;;;;12.51;60.75;100526.05;1745617;80;21490;-68
2022/06/16 02:47:13;;;;;;;5.78;2.55;;;;;;;12.49;60.76;100526.67;1725747;81;20928;-68
2022/06/16 02:49:57;;;;;;;4.30;2.45;;;;;;;12.47;60.82;100528.62;1786826;80;21423;-68
2022/06/16 02:52:47;;;;;;;6.75;2.50;;;;;;;12.44;60.89;100535.48;1752604;80;21787;-69
2022/06/16 02:55:25;;;;;;;4.37;2.58;;;;;;;12.45;60.96;100535.86;1727575;83;20948;-68
2022/06/16 02:57:56;;;;;;;4.65;2.50;;;;;;;12.49;61.04;100534.62;1709818;83;20948;-68
2022/06/16 03:00:38;;;;;;;4.53;2.40;;;;;;;12.53;61.25;100534.70;1696963;81;21038;-68
2022/06/16 03:03:29;;;;;;;4.25;2.58;;;;;;;12.57;61.38;100533.97;1742340;81;21034;-68
2022/06/16 03:05:58;;;;;;;5.55;2.90;;;;;;;12.61;61.38;100527.42;1705957;82;21827;-68
2022/06/16 03:08:28;;;;;;;6.85;2.47;;;;;;;12.69;61.31;100531.59;1719687;83;21054;-68
2022/06/16 03:10:58;;;;;;;4.17;2.22;;;;;;;12.77;61.25;100539.73;1740954;82;20989;-69
2022/06/16 03:13:29;;;;;;;3.55;2.20;;;;;;;12.84;61.27;100537.40;1726976;83;21008;-68
2022/06/16 03:15:57;;;;;;;4.37;2.08;;;;;;;12.92;61.19;100536.22;1740949;80;21020;-68
2022/06/16 03:18:24;;;;;;;3.15;2.30;;;;;;;13.01;60.97;100541.22;1743639;80;21863;-68
2022/06/16 03:20:51;;;;;;;3.90;2.30;;;;;;;13.09;60.83;100534.77;1726222;81;20992;-68
2022/06/16 03:23:18;;;;;;;3.30;2.00;;;;;;;13.15;60.72;100540.38;1725700;83;21004;-68
2022/06/16 03:25:46;;;;;;;6.80;2.10;;;;;;;13.23;60.60;100537.59;1726875;80;21060;-69
2022/06/16 03:28:13;;;;;;;4.97;2.08;;;;;;;13.29;60.51;100533.88;1739966;81;21074;-68
2022/06/16 03:30:40;;;;;;;2.92;1.95;;;;;;;13.37;60.47;100534.05;1724575;81;21919;-67
2022/06/16 03:33:09;;;;;;;4.17;2.00;;;;;;;13.45;60.36;100537.36;1740253;82;21005;-69
2022/06/16 03:35:36;;;;;;;2.85;2.05;;;;;;;13.51;60.39;100542.59;1723714;81;21009;-68
2022/06/16 03:38:03;;;;;;;2.98;2.20;;;;;;;13.57;60.41;100542.05;1715368;83;21134;-68
2022/06/16 03:40:29;;;;;;;9.23;2.30;;;;;;;13.62;60.40;100539.36;1743770;81;20964;-68
2022/06/16 03:42:56;;;;;;;3.77;2.08;;;;;;;13.70;60.39;100541.30;1747614;81;21902;-68
2022/06/16 03:45:26;;;;;;;4.47;2.30;;;;;;;13.79;60.41;100536.98;1710998;82;21459;-68
2022/06/16 03:47:53;;;;;;;5.08;1.70;;;;;;;13.88;60.41;100538.80;1740075;81;21487;-68
2022/06/16 03:50:20;;;;;;;3.72;1.90;;;;;;;13.98;60.39;100534.33;1723417;81;21009;-68
2022/06/16 03:52:48;;;;;;;6.40;2.52;;;;;;;14.09;60.38;100539.53;1735468;80;20988;-71
2022/06/16 03:55:16;;;;;;;6.67;2.20;;;;;;;14.22;60.39;100542.73;1744462;82;22585;-68
2022/06/16 03:57:42;;;;;;;3.27;2.00;;;;;;;14.35;60.32;100540.26;1745490;80;21018;-68
2022/06/16 04:00:11;;;;;;;7.40;2.55;;;;;;;14.48;60.27;100536.86;1747403;80;20960;-68
2022/06/16 04:02:48;;;;;;;5.25;1.98;;;;;;;14.64;60.17;100537.58;1741650;81;21058;-70
2022/06/16 04:05:23;;;;;;;4.95;2.02;;;;;;;14.81;60.17;100537.67;1735976;82;20983;-67
2022/06/16 04:07:52;;;;;;;2.52;1.52;;;;;;;15.01;60.01;100531.78;1749737;80;21973;-67
2022/06/16 04:10:21;;;;;;;4.83;1.55;;;;;;;15.25;59.82;100537.92;1742339;80;20938;-68
2022/06/16 04:12:48;;;;;;;2.75;1.65;;;;;;;15.50;59.40;100539.52;1744142;80;21050;-69
2022/06/16 04:15:17;;;;;;;3.60;1.87;;;;;;;15.76;58.79;100549.00;1760521;80;21060;-68
2022/06/16 04:17:43;;;;;;;2.50;1.42;;;;;;;15.99;58.27;100543.55;1693042;82;22028;-68
2022/06/16 04:20:12;;;;;;;2.50;1.40;;;;;;;16.20;57.85;100541.89;1744071;81;21866;-68
2022/06/16 04:22:52;;;;;;;2.10;1.50;;;;;;;16.39;57.31;100540.88;1712685;82;21379;-70
2022/06/16 04:25:30;;;;;;;4.03;1.45;;;;;;;16.58;56.56;100540.19;1711007;82;20980;-68
2022/06/16 04:27:52;;;;;;;4.28;1.80;;;;;;;16.75;56.13;100537.66;1747776;81;21443;-68
2022/06/16 04:30:20;;;;;;;5.00;1.40;;;;;;;16.92;55.71;100540.77;1717918;82;20964;-69
2022/06/16 04:32:49;;;;;;;2.33;1.35;;;;;;;17.04;55.32;100539.48;1750726;81;21971;-68
2022/06/16 04:35:18;;;;;;;3.92;1.20;;;;;;;17.14;55.27;100546.04;1752589;81;21006;-68
2022/06/16 04:37:47;;;;;;;2.27;1.30;;;;;;;17.20;55.01;100540.08;1722666;82;20996;-68
2022/06/16 04:40:14;;;;;;;3.72;1.40;;;;;;;17.26;54.78;100550.09;1746579;81;20989;-68
2022/06/16 04:42:43;;;;;;;2.77;1.20;;;;;;;17.30;54.66;100551.45;1723889;83;20966;-69
2022/06/16 04:45:11;;;;;;;2.22;1.30;;;;;;;17.34;54.40;100553.30;1747667;80;21930;-68
2022/06/16 04:47:39;;;;;;;2.60;1.10;;;;;;;17.38;54.09;100555.50;1740196;80;21000;-68
2022/06/16 04:50:09;;;;;;;2.05;1.20;;;;;;;17.42;53.95;100555.50;1741258;81;21067;-68
2022/06/16 04:52:37;;;;;;;5.35;1.35;;;;;;;17.48;53.85;100555.36;1741833;80;21004;-68
2022/06/16 04:55:06;;;;;;;3.45;1.37;;;;;;;17.55;53.81;100555.53;1741701;82;20958;-69
2022/06/16 04:57:43;;;;;;;4.67;1.50;;;;;;;17.64;53.54;100558.06;1622224;88;21860;-68
2022/06/16 05:00:18;;;;;;;2.40;1.20;;;;;;;17.75;53.76;100556.95;1739750;80;20894;-68
2022/06/16 05:02:52;;;;;;;1.42;0.90;;;;;;;17.87;53.36;100551.66;1730531;82;20974;-68
2022/06/16 05:05:38;;;;;;;2.90;1.25;;;;;;;18.01;52.79;100555.50;1733619;81;21013;-70
2022/06/16 05:08:08;;;;;;;1.85;1.20;;;;;;;18.12;52.69;100551.16;1706888;81;20994;-68
2022/06/16 05:10:53;;;;;;;3.35;1.20;;;;;;;18.25;52.78;100561.38;1743388;80;21855;-68
2022/06/16 05:13:40;;;;;;;4.28;1.05;;;;;;;18.40;52.24;100562.86;1722599;82;20961;-68
2022/06/16 05:16:28;;;;;;;2.47;1.10;;;;;;;18.50;51.53;100561.69;1750077;80;21386;-69
2022/06/16 05:19:12;;;;;;;2.15;1.30;;;;;;;18.61;50.96;100555.15;1712283;81;21048;-68
2022/06/16 05:21:40;;;;;;;6.97;1.30;;;;;;;18.71;50.35;100561.69;1683741;81;21067;-68
2022/06/16 05:24:15;;;;;;;2.05;1.10;;;;;;;18.75;50.24;100560.36;1687388;82;21860;-68
2022/06/16 05:27:03;;;;;;;2.95;1.10;;;;;;;18.80;49.72;100564.17;1713872;83;21111;-68
2022/06/16 05:29:32;;;;;;;4.17;1.17;;;;;;;18.80;48.88;100562.00;1706204;83;20980;-68
2022/06/16 05:32:16;;;;;;;4.20;1.05;;;;;;;18.81;48.40;100565.84;1710699;80;21543;-69
2022/06/16 05:34:45;;;;;;;1.98;1.07;;;;;;;18.87;48.03;100556.31;1742609;82;21023;-68
2022/06/16 05:37:13;;;;;;;2.87;1.12;;;;;;;18.95;47.62;100558.97;1750988;80;21589;-68
2022/06/16 05:39:58;;;;;;;5.92;1.30;;;;;;;19.03;47.31;100559.45;1739422;80;21020;-68
2022/06/16 05:42:26;;;;;;;4.05;1.20;;;;;;;19.13;47.43;100556.08;1705573;80;21489;-68
2022/06/16 05:44:57;;;;;;;3.25;1.00;;;;;;;19.27;46.49;100561.20;1742654;82;21024;-68
2022/06/16 05:47:26;;;;;;;2.83;0.95;;;;;;;19.36;46.26;100557.48;1742265;80;21149;-68
2022/06/16 05:49:54;;;;;;;4.92;1.20;;;;;;;19.43;46.28;100558.46;1740155;80;21869;-68
2022/06/16 05:52:22;;;;;;;4.00;1.27;;;;;;;19.48;45.89;100557.41;1733511;81;21135;-70
2022/06/16 05:55:00;;;;;;;1.57;0.90;;;;;;;19.56;45.49;100564.61;1754440;80;21008;-68
2022/06/16 05:57:29;;;;;;;3.45;0.88;;;;;;;19.63;45.31;100565.09;1756469;80;21990;-68
2022/06/16 05:59:55;;;;;;;2.60;1.07;;;;;;;19.67;45.47;100566.39;1722229;83;21059;-69
2022/06/16 06:02:23;;;;;;;2.80;0.90;;;;;;;19.77;45.46;100562.14;1753723;81;21837;-70
2022/06/16 06:04:50;;;;;;;3.75;1.10;;;;;;;19.87;44.30;100560.06;1758700;81;20936;-70
2022/06/16 06:07:17;;;;;;;2.77;1.20;;;;;;;19.93;44.00;100559.37;1756497;80;21020;-70
2022/06/16 06:18:20;;;;;;;2.87;0.95;;;;;;;20.30;43.71;100560.44;1758950;80;21051;-69
2022/06/16 06:20:46;;;;;;;2.50;0.90;;;;;;;20.40;43.46;100555.66;1724149;81;21919;-69
2022/06/16 06:23:14;;;;;;;2.83;0.88;;;;;;;20.50;43.17;100556.78;1753050;81;21051;-70
2022/06/16 06:25:41;;;;;;;2.00;0.80;;;;;;;20.60;43.11;100557.86;1750337;80;21456;-70
2022/06/16 06:28:15;;;;;;;2.90;1.00;;;;;;;20.67;42.03;100562.32;1743811;80;22422;-70
2022/06/16 06:30:42;;;;;;;1.98;0.80;;;;;;;20.65;42.16;100558.96;1754077;80;21060;-70
2022/06/16 06:33:08;;;;;;;1.82;0.82;;;;;;;20.71;41.80;100557.41;1737778;80;21043;-69
2022/06/16 06:35:35;;;;;;;5.60;1.00;;;;;;;20.77;41.91;100558.86;1733917;80;21082;-69
2022/06/16 06:38:02;;;;;;;1.37;0.62;;;;;;;20.86;41.79;100559.10;1741637;80;20940;-70
2022/06/16 06:40:32;;;;;;;3.15;0.90;;;;;;;20.98;41.42;100557.30;1752836;81;22589;-69
2022/06/16 06:42:58;;;;;;;1.90;0.80;;;;;;;21.06;41.43;100549.98;1715908;83;21032;-70
2022/06/16 06:45:27;;;;;;;1.67;0.80;;;;;;;21.18;41.70;100553.03;1719439;82;21064;-69
2022/06/16 06:47:54;;;;;;;3.35;1.00;;;;;;;21.29;40.32;100547.20;1725493;81;20980;-72
2022/06/16 06:50:30;;;;;;;1.98;0.85;;;;;;;21.32;40.35;100556.23;1718355;82;21073;-70
2022/06/16 06:52:56;;;;;;;4.45;0.90;;;;;;;21.36;40.61;100547.30;1723048;81;21803;-72
2022/06/16 06:55:23;;;;;;;3.10;1.00;;;;;;;21.42;40.70;100539.81;1733295;81;20973;-70
2022/06/16 06:57:51;;;;;;;3.65;1.10;;;;;;;21.53;40.90;100546.07;1733624;82;21019;-71
2022/06/16 07:00:21;;;;;;;3.02;0.93;;;;;;;21.60;40.36;100544.27;1722490;81;21055;-72
2022/06/16 07:02:48;;;;;;;1.95;1.00;;;;;;;21.61;39.71;100552.66;1748737;81;21082;-71
2022/06/16 07:05:14;;;;;;;1.87;1.07;;;;;;;21.54;39.78;100547.73;1755984;81;21880;-69
2022/06/16 07:07:42;;;;;;;2.02;0.88;;;;;;;21.52;40.07;100552.47;1757581;81;21001;-72
2022/06/16 07:10:10;;;;;;;1.32;0.98;;;;;;;21.53;40.00;100552.80;1726105;81;21011;-72
2022/06/16 07:12:37;;;;;;;3.17;1.10;;;;;;;21.56;39.60;100544.34;1749131;80;21529;-74
2022/06/16 07:15:05;;;;;;;3.77;1.30;;;;;;;21.56;39.64;100548.89;1746532;80;21059;-73
2022/06/16 07:17:32;;;;;;;2.37;1.20;;;;;;;21.57;39.20;100548.69;1747098;81;21838;-72
2022/06/16 07:19:59;;;;;;;1.70;1.00;;;;;;;21.64;40.15;100549.61;1754581;80;21031;-72
2022/06/16 07:22:26;;;;;;;2.95;1.10;;;;;;;21.78;40.70;100549.23;1763657;80;21067;-72
2022/06/16 07:24:53;;;;;;;2.92;1.00;;;;;;;21.84;40.65;100544.45;1748359;81;21493;-72
2022/06/16 07:27:20;;;;;;;2.02;1.10;;;;;;;21.91;41.13;100545.87;1745372;80;21030;-74
2022/06/16 07:29:49;;;;;;;1.87;0.82;;;;;;;22.04;40.30;100535.23;1735329;80;22571;-74
2022/06/16 07:32:18;;;;;;;1.70;0.95;;;;;;;22.13;40.05;100542.69;1759581;80;21681;-74
2022/06/16 07:34:44;;;;;;;1.98;0.80;;;;;;;22.24;39.80;100544.34;1753090;81;21051;-72
2022/06/16 07:37:12;;;;;;;6.53;1.02;;;;;;;22.27;39.58;100537.73;1745032;81;21009;-76
2022/06/16 07:39:40;;;;;;;2.58;0.80;;;;;;;22.33;39.28;100538.31;1721875;81;21055;-76
2022/06/16 07:42:08;;;;;;;1.98;1.00;;;;;;;22.41;39.01;100536.00;1723232;81;23569;-77
2022/06/16 07:44:35;;;;;;;4.03;1.20;;;;;;;22.48;39.15;100542.25;1718533;81;21047;-74
2022/06/16 07:47:03;;;;;;;2.67;0.80;;;;;;;22.56;39.19;100543.45;1718425;81;21027;-74
2022/06/16 07:49:32;;;;;;;1.75;0.90;;;;;;;22.54;39.27;100540.96;1721477;83;21101;-75
2022/06/16 07:51:59;;;;;;;1.92;0.90;;;;;;;22.56;39.47;100538.90;1718472;83;21052;-75
2022/06/16 07:54:27;;;;;;;1.95;1.02;;;;;;;22.60;38.96;100536.67;1738806;80;21829;-77
2022/06/16 07:56:54;;;;;;;1.77;1.00;;;;;;;22.67;39.59;100535.34;1777982;79;21048;-76
2022/06/16 07:59:21;;;;;;;4.78;1.30;;;;;;;22.79;39.23;100531.09;1777984;80;21046;-76
2022/06/16 08:01:47;;;;;;;2.72;0.90;;;;;;;22.85;39.16;100532.50;1756693;80;21354;-73
2022/06/16 08:04:15;;;;;;;2.80;0.90;;;;;;;22.85;39.32;100523.59;1778285;78;21052;-75
2022/06/16 08:06:42;;;;;;;1.92;0.70;;;;;;;22.93;38.63;100536.07;1777396;78;21848;-74
2022/06/16 08:09:10;;;;;;;2.65;1.00;;;;;;;22.94;37.42;100536.38;1779195;80;21032;-76
2022/06/16 08:14:24;;;;;;;2.67;0.70;;;;;;;23.10;37.61;100542.80;1779300;78;21012;-74
2022/06/16 08:16:51;;;;;;;1.72;0.90;;;;;;;23.18;36.37;100537.77;1779486;78;20937;-72
2022/06/16 08:19:18;;;;;;;4.00;0.80;;;;;;;23.15;36.05;100524.16;1774901;79;21780;-73
2022/06/16 08:21:45;;;;;;;3.45;1.15;;;;;;;23.22;36.86;100526.89;1780414;80;20937;-75
2022/06/16 08:24:11;;;;;;;2.77;0.95;;;;;;;23.41;37.62;100529.67;1780598;79;21005;-73
2022/06/16 08:26:39;;;;;;;1.95;0.90;;;;;;;23.50;36.55;100533.02;1780122;80;21110;-74
2022/06/16 08:29:08;;;;;;;2.55;1.00;;;;;;;23.60;36.24;100532.67;1781043;78;21497;-73
2022/06/16 08:31:35;;;;;;;1.47;0.75;;;;;;;23.63;35.83;100532.25;1777821;80;21908;-72
2022/06/16 08:34:01;;;;;;;3.40;0.90;;;;;;;23.67;36.03;100538.92;1782004;78;20947;-75
2022/06/16 08:36:30;;;;;;;1.95;0.90;;;;;;;23.73;36.38;100534.56;1779462;80;21438;-73
2022/06/16 08:38:56;;;;;;;1.72;0.80;;;;;;;23.87;36.71;100533.58;1780223;80;21514;-70
2022/06/16 08:41:38;;;;;;;1.75;0.80;;;;;;;24.01;35.58;100523.62;1779669;78;20948;-74
2022/06/16 08:44:26;;;;;;;3.30;0.80;;;;;;;24.02;35.83;100532.85;1740834;81;22320;-72
2022/06/16 08:47:16;;;;;;;2.98;0.78;;;;;;;23.92;35.71;100522.47;1780774;80;20953;-71
2022/06/16 08:50:10;;;;;;;1.57;0.75;;;;;;;23.90;36.64;100529.11;1777135;79;20943;-78
2022/06/16 08:52:59;;;;;;;;;;;;;;;24.05;35.95;100519.49;1776790;78;21076;-73
2022/06/16 08:55:44;;;;;;;3.15;0.82;;;;;;;24.26;35.26;100524.69;1775953;78;20219;-72
2022/06/16 08:58:42;;;;;;;4.12;0.88;;;;;;;24.44;34.27;100528.14;1776961;78;22092;-76
2022/06/16 09:01:35;;;;;;;1.45;0.60;;;;;;;24.51;34.66;100527.59;1782698;78;21007;-84
2022/06/16 09:04:09;;;;;;;2.25;0.70;;;;;;;24.58;33.68;100517.63;1775476;79;21052;-77
2022/06/16 09:06:59;;;;;;;2.08;0.90;;;;;;;24.69;33.64;100522.38;1776610;79;21875;-76
2022/06/16 09:10:15;;;;;;;1.87;0.90;;;;;;;24.78;33.86;100517.59;1776274;78;21534;-73
2022/06/16 09:13:12;;;;;;;3.05;1.00;;;;;;;24.90;33.25;100519.98;1777824;80;22672;-73
2022/06/16 09:16:04;;;;;;;4.10;0.68;;;;;;;24.88;33.53;100518.50;1775975;78;20997;-74
2022/06/16 09:19:00;;;;;;;1.67;0.90;;;;;;;24.99;33.62;100513.80;1779566;78;21024;-79
2022/06/16 09:21:39;;;;;;;1.12;0.90;;;;;;;25.13;33.63;100520.03;1763224;78;21094;-73
2022/06/16 09:24:29;;;;;;;3.55;2.50;;;;;;;25.21;33.91;100518.45;1779805;78;21059;-77
2022/06/16 09:27:07;;;;;;;24.30;18.67;;;;;;;25.31;33.29;100507.48;1776591;79;22880;-76
2022/06/16 09:29:59;;;;;;;3.37;1.30;;;;;;;25.40;33.06;100504.84;1776040;78;21083;-82
2022/06/16 09:32:37;;;;;;;1.75;0.80;;;;;;;25.31;33.01;100497.19;1768565;78;21516;-79
2022/06/16 09:35:18;;;;;;;4.42;0.90;;;;;;;25.11;33.27;100513.49;1747878;80;21128;-77
2022/06/16 09:37:53;;;;;;;3.62;0.88;;;;;;;24.99;33.64;100503.81;1726969;82;22171;-79
2022/06/16 09:40:31;;;;;;;3.42;0.80;;;;;;;24.81;33.58;100516.67;1749452;81;22336;-76
2022/06/16 09:43:31;;;;;;;2.22;0.70;;;;;;;24.60;33.82;100519.59;1749874;80;21085;-80
2022/06/16 09:46:05;;;;;;;2.25;0.78;;;;;;;24.49;33.82;100506.73;1745324;81;21050;-77
2022/06/16 09:48:37;;;;;;;2.25;0.90;;;;;;;24.43;34.17;100512.98;1744385;82;21040;-77
2022/06/16 09:51:12;;;;;;;1.82;0.90;;;;;;;24.39;34.38;100511.20;1735218;82;21485;-76
2022/06/16 09:53:46;;;;;;;2.20;0.70;;;;;;;24.41;34.81;100508.30;1779599;78;21963;-75
2022/06/16 09:56:29;;;;;;;1.42;0.80;;;;;;;24.39;33.36;100508.51;1775715;80;20889;-77
2022/06/16 09:59:00;;;;;;;1.98;1.00;;;;;;;24.31;34.01;100511.41;1748809;80;21075;-73
2022/06/16 10:01:38;;;;;;;2.05;0.90;;;;;;;24.35;34.44;100511.84;1775247;80;21111;-78
2022/06/16 10:04:07;;;;;;;2.35;1.02;;;;;;;24.58;34.94;100520.33;1755588;80;21063;-75
2022/06/16 10:07:09;;;;;;;3.47;0.70;;;;;;;24.97;34.75;100507.78;1779258;78;21896;-76
2022/06/16 10:09:57;;;;;;;3.22;0.85;;;;;;;25.28;34.11;100507.06;1756225;78;21097;-77
2022/06/16 10:12:48;;;;;;;3.00;1.00;;;;;;;25.47;33.15;100500.73;1777731;78;21419;-78
2022/06/16 10:15:38;;;;;;;2.47;0.88;;;;;;;25.56;32.41;100502.66;1774418;80;21040;-77
2022/06/16 10:18:06;;;;;;;2.80;0.80;;;;;;;25.64;32.63;100503.23;1775873;78;21043;-84
2022/06/16 10:20:33;;;;;;;1.67;0.85;;;;;;;25.78;32.68;100500.50;1778257;78;21833;-78
2022/06/16 10:23:14;;;;;;;2.08;0.90;;;;;;;26.01;32.93;100495.85;1773767;78;21488;-85
2022/06/16 10:25:46;;;;;;;3.83;0.80;;;;;;;26.35;32.83;100502.14;1753835;80;21035;-84
2022/06/16 10:28:33;;;;;;;4.73;1.00;;;;;;;26.66;32.82;100494.99;1778574;78;21027;-82
2022/06/16 10:31:03;;;;;;;2.05;0.90;;;;;;;26.89;32.23;100494.32;1777719;78;21027;-77
2022/06/16 10:33:34;;;;;;;1.87;0.80;;;;;;;26.95;30.96;100499.67;1777101;78;22065;-80
2022/06/16 10:36:18;;;;;;;4.67;0.90;;;;;;;26.79;30.54;100497.02;1778804;80;21480;-77
2022/06/16 10:39:07;;;;;;;1.12;0.70;;;;;;;26.52;30.89;100496.98;1755161;80;21042;-77
2022/06/16 10:41:55;;;;;;;3.05;1.98;;;;;;;26.31;30.85;100498.73;1777758;80;21035;-77
2022/06/16 10:44:24;;;;;;;23.47;21.37;;;;;;;26.05;31.84;100497.88;1791832;78;21459;-80
2022/06/16 10:47:00;;;;;;;6.12;5.45;;;;;;;26.15;32.10;100490.12;1785410;78;21837;-79
2022/06/16 10:49:35;;;;;;;3.35;1.30;;;;;;;26.47;32.73;100486.02;1778689;79;21027;-81
2022/06/16 10:52:36;;;;;;;1.65;1.00;;;;;;;26.91;30.52;100495.73;1779148;80;21046;-81
2022/06/16 10:55:14;;;;;;;2.70;0.90;;;;;;;27.18;27.89;100485.97;1775132;80;21084;-80
2022/06/16 10:57:49;;;;;;;2.10;0.90;;;;;;;27.31;27.85;100488.00;1756197;81;22290;-78
2022/06/16 11:00:22;;;;;;;2.52;0.68;;;;;;;27.44;27.96;100486.16;1752228;80;22923;-80
2022/06/16 11:03:16;;;;;;;4.40;0.80;;;;;;;27.46;28.58;100486.75;1756834;80;21071;-79
2022/06/16 11:05:57;;;;;;;1.12;0.70;;;;;;;27.36;29.08;100486.77;1653297;83;21044;-79
2022/06/16 11:08:36;;;;;;;2.35;0.88;;;;;;;27.18;28.98;100484.09;1692641;84;21033;-77
2022/06/16 11:11:04;;;;;;;3.65;0.90;;;;;;;26.81;28.86;100486.78;1725230;83;21053;-76
2022/06/16 11:13:41;;;;;;;3.20;1.10;;;;;;;26.47;29.74;100492.78;1722866;82;22041;-78
2022/06/16 11:16:13;;;;;;;4.37;0.82;;;;;;;26.28;29.77;100489.17;1694226;83;21078;-76
2022/06/16 11:18:44;;;;;;;1.77;0.90;;;;;;;26.09;29.85;100486.94;1726875;81;21045;-75
2022/06/16 11:21:22;;;;;;;1.67;0.82;;;;;;;26.03;29.82;100480.21;1724496;83;21474;-79
2022/06/16 11:23:52;;;;;;;1.72;0.78;;;;;;;26.01;30.42;100477.73;1696223;83;21002;-76
2022/06/16 11:26:28;;;;;;;1.77;0.80;;;;;;;26.11;29.70;100481.30;1725164;83;21887;-77
2022/06/16 11:28:58;;;;;;;2.08;0.78;;;;;;;26.15;30.09;100475.73;1725545;83;21026;-79
2022/06/16 11:31:45;;;;;;;1.47;0.70;;;;;;;26.36;30.26;100469.94;1724931;83;21075;-76
2022/06/16 11:34:18;;;;;;;1.87;0.70;;;;;;;26.80;29.79;100472.94;1692462;83;21054;-78
2022/06/16 11:37:12;;;;;;;2.58;0.60;;;;;;;27.09;28.58;100469.19;1718372;81;21018;-77
2022/06/16 11:39:59;;;;;;;1.40;0.60;;;;;;;27.02;28.65;100474.71;1717537;83;21935;-77
2022/06/16 11:42:57;;;;;;;1.80;0.75;;;;;;;26.93;27.81;100468.44;1717491;83;20999;-77
2022/06/16 11:45:39;;;;;;;1.42;0.65;;;;;;;26.94;27.90;100468.73;1717123;83;20975;-77
2022/06/16 11:48:33;;;;;;;2.37;0.97;;;;;;;27.16;28.49;100466.40;1717568;83;21514;-76
2022/06/16 11:51:30;;;;;;;1.67;0.70;;;;;;;27.35;28.41;100472.91;1716642;83;21044;-75
2022/06/16 11:54:31;;;;;;;4.75;0.90;;;;;;;27.58;27.22;100468.09;1751948;81;23644;-74
2022/06/16 11:57:13;;;;;;;1.47;0.68;;;;;;;27.50;26.99;100464.88;1753464;80;21037;-75
2022/06/16 12:00:17;;;;;;;2.35;0.65;;;;;;;27.36;26.85;100471.03;1723554;81;20995;-78
2022/06/16 12:03:08;;;;;;;;;;;;;;;27.22;26.75;100464.97;1755561;80;21035;-77
2022/06/16 12:05:59;;;;;;;1.42;0.70;;;;;;;27.16;27.50;100459.09;1752653;81;20747;-78
2022/06/16 12:08:50;;;;;;;1.87;0.62;;;;;;;27.32;27.16;100461.70;1752842;80;22264;-76
2022/06/16 12:11:35;;;;;;;1.45;0.70;;;;;;;27.57;26.80;100460.19;1754370;81;21026;-76
2022/06/16 12:14:22;;;;;;;2.35;0.68;;;;;;;27.78;24.99;100463.75;1754977;81;21083;-77
2022/06/16 12:17:04;;;;;;;1.22;0.60;;;;;;;27.76;24.91;100464.52;1722316;81;21035;-78
2022/06/16 12:19:53;;;;;;;14.60;13.20;;;;;;;27.49;25.28;100464.58;1745117;81;21130;-78
2022/06/16 12:22:34;;;;;;;7.28;6.58;;;;;;;27.18;26.34;100456.97;1753100;81;22165;-74
2022/06/16 12:25:26;;;;;;;1.62;1.45;;;;;;;27.05;27.08;100467.47;1752810;81;21489;-77
2022/06/16 12:28:11;;;;;;;1.50;0.90;;;;;;;27.04;27.11;100457.69;1754061;80;21100;-75